Time,TemperatureF,DewpointF,PressureIn,WindDirection,WindDirectionDegrees,WindSpeedMPH,WindSpeedGustMPH,Humidity,HourlyPrecipIn,Conditions,Clouds,dailyrainin,SolarRadiationWatts/m^2,SoftwareType,DateUTC
2013-03-06 00:02:00,35.0,32.0,-100.00,NE,48,8.0,16.0,90,0.00,,,0.02,0.000000,,2013-03-06 05:02:00,
2013-03-06 00:12:00,35.0,32.0,-100.00,NE,48,8.0,16.0,90,0.00,,,0.02,0.000000,,2013-03-06 05:12:00,
2013-03-06 00:22:00,35.0,32.0,-100.00,NE,48,8.0,16.0,90,0.00,,,0.02,0.000000,,2013-03-06 05:22:00,
2013-03-06 00:32:00,35.0,32.0,-100.00,NE,48,8.0,16.0,90,0.00,,,0.02,0.000000,,2013-03-06 05:32:00,
2013-03-06 00:52:00,35.0,33.0,-100.00,NE,47,7.0,14.0,93,0.00,,,0.01,0.000000,,2013-03-06 05:52:00,
2013-03-06 01:02:00,35.0,33.0,-100.00,NE,47,7.0,14.0,93,0.00,,,0.01,0.000000,,2013-03-06 06:02:00,
2013-03-06 01:12:00,35.0,33.0,-100.00,NE,47,7.0,14.0,93,0.00,,,0.01,0.000000,,2013-03-06 06:12:00,
2013-03-06 01:22:00,35.0,33.0,-100.00,NE,47,7.0,14.0,93,0.00,,,0.01,0.000000,,2013-03-06 06:22:00,
2013-03-06 01:32:00,35.0,33.0,-100.00,NE,47,7.0,14.0,93,0.00,,,0.01,0.000000,,2013-03-06 06:32:00,
2013-03-06 01:52:00,35.0,33.0,-100.00,NE,45,8.0,15.0,93,0.01,,,0.02,0.000000,,2013-03-06 06:52:00,
2013-03-06 02:02:00,35.0,33.0,-100.00,NE,45,8.0,15.0,93,0.01,,,0.02,0.000000,,2013-03-06 07:02:00,
2013-03-06 02:11:00,35.0,33.0,-100.00,NE,45,8.0,15.0,93,0.01,,,0.02,0.000000,,2013-03-06 07:11:00,
2013-03-06 02:22:00,35.0,33.0,-100.00,NE,45,8.0,15.0,93,0.01,,,0.02,0.000000,,2013-03-06 07:22:00,
2013-03-06 02:32:00,35.0,33.0,-100.00,NE,45,8.0,15.0,93,0.01,,,0.02,0.000000,,2013-03-06 07:32:00,
2013-03-06 02:52:00,35.0,32.0,-100.00,NE,50,8.0,18.0,89,0.00,,,0.01,0.000000,,2013-03-06 07:52:00,
2013-03-06 03:01:00,35.0,32.0,-100.00,NE,50,8.0,18.0,89,0.00,,,0.01,0.000000,,2013-03-06 08:01:00,
2013-03-06 03:11:00,35.0,32.0,-100.00,NE,50,8.0,18.0,89,0.00,,,0.01,0.000000,,2013-03-06 08:11:00,
2013-03-06 03:21:00,35.0,32.0,-100.00,NE,50,8.0,18.0,89,0.00,,,0.01,0.000000,,2013-03-06 08:21:00,
2013-03-06 03:32:00,35.0,32.0,-100.00,NE,50,8.0,18.0,89,0.00,,,0.01,0.000000,,2013-03-06 08:32:00,
2013-03-06 03:52:00,35.0,31.0,-100.00,NE,44,8.0,19.0,84,0.00,,,0.01,0.000000,,2013-03-06 08:52:00,
2013-03-06 04:02:00,35.0,31.0,-100.00,NE,44,8.0,19.0,84,0.00,,,0.01,0.000000,,2013-03-06 09:02:00,
2013-03-06 04:12:00,35.0,31.0,-100.00,NE,44,8.0,19.0,84,0.00,,,0.01,0.000000,,2013-03-06 09:12:00,
2013-03-06 04:22:00,35.0,31.0,-100.00,NE,44,8.0,19.0,84,0.00,,,0.01,0.000000,,2013-03-06 09:22:00,
2013-03-06 04:32:00,35.0,31.0,-100.00,NE,44,8.0,19.0,84,0.00,,,0.01,0.000000,,2013-03-06 09:32:00,
2013-03-06 05:02:00,35.0,31.0,-100.00,NE,37,6.0,20.0,85,0.00,,,0.01,0.000000,,2013-03-06 10:02:00,
2013-03-06 05:11:00,35.0,31.0,-100.00,NE,37,6.0,20.0,85,0.00,,,0.01,0.000000,,2013-03-06 10:11:00,
2013-03-06 05:22:00,35.0,31.0,-100.00,NE,37,6.0,20.0,85,0.00,,,0.01,0.000000,,2013-03-06 10:22:00,
2013-03-06 05:32:00,35.0,31.0,-100.00,NE,37,6.0,20.0,85,0.00,,,0.01,0.000000,,2013-03-06 10:32:00,
2013-03-06 05:52:00,35.0,30.0,-100.00,NE,46,7.0,14.0,83,0.00,,,0.01,0.000000,,2013-03-06 10:52:00,
2013-03-06 06:02:00,35.0,30.0,-100.00,NE,46,7.0,14.0,83,0.00,,,0.01,0.000000,,2013-03-06 11:02:00,
2013-03-06 06:11:00,35.0,30.0,-100.00,NE,46,7.0,14.0,83,0.00,,,0.01,0.000000,,2013-03-06 11:11:00,
2013-03-06 06:22:00,35.0,30.0,-100.00,NE,46,7.0,14.0,83,0.00,,,0.01,0.000000,,2013-03-06 11:22:00,
2013-03-06 06:32:00,35.0,30.0,-100.00,NE,46,7.0,14.0,83,0.00,,,0.01,0.000000,,2013-03-06 11:32:00,
2013-03-06 06:53:00,34.0,29.0,-100.00,NE,51,8.0,16.0,81,0.00,,,0.01,7.000000,,2013-03-06 11:53:00,
2013-03-06 07:02:00,34.0,29.0,-100.00,NE,51,8.0,16.0,81,0.00,,,0.01,7.000000,,2013-03-06 12:02:00,
2013-03-06 07:12:00,34.0,29.0,-100.00,NE,51,8.0,16.0,81,0.00,,,0.01,7.000000,,2013-03-06 12:12:00,
2013-03-06 07:22:00,34.0,29.0,-100.00,NE,51,8.0,16.0,81,0.00,,,0.01,7.000000,,2013-03-06 12:22:00,
2013-03-06 07:33:00,34.0,29.0,-100.00,NE,51,8.0,16.0,81,0.00,,,0.01,7.000000,,2013-03-06 12:33:00,
2013-03-06 07:53:00,35.0,29.0,-100.00,NE,43,9.0,19.0,79,0.00,,,0.01,70.000000,,2013-03-06 12:53:00,
2013-03-06 08:02:00,35.0,29.0,-100.00,NE,43,9.0,19.0,79,0.00,,,0.01,70.000000,,2013-03-06 13:02:00,
2013-03-06 08:12:00,35.0,29.0,-100.00,NE,43,9.0,19.0,79,0.00,,,0.01,70.000000,,2013-03-06 13:12:00,
2013-03-06 08:22:00,35.0,29.0,-100.00,NE,43,9.0,19.0,79,0.00,,,0.01,70.000000,,2013-03-06 13:22:00,
2013-03-06 08:32:00,35.0,29.0,-100.00,NE,43,9.0,19.0,79,0.00,,,0.01,70.000000,,2013-03-06 13:32:00,
2013-03-06 08:52:00,37.0,30.0,-100.00,NE,43,9.0,22.0,75,0.00,,,0.01,218.000000,,2013-03-06 13:52:00,
2013-03-06 09:02:00,37.0,30.0,-100.00,NE,43,9.0,22.0,75,0.00,,,0.01,218.000000,,2013-03-06 14:02:00,
2013-03-06 09:11:00,37.0,30.0,-100.00,NE,43,9.0,22.0,75,0.00,,,0.01,218.000000,,2013-03-06 14:11:00,
2013-03-06 09:22:00,37.0,30.0,-100.00,NE,43,9.0,22.0,75,0.00,,,0.01,218.000000,,2013-03-06 14:22:00,
2013-03-06 09:32:00,37.0,30.0,-100.00,NE,43,9.0,22.0,75,0.00,,,0.01,218.000000,,2013-03-06 14:32:00,
2013-03-06 10:02:00,34.0,31.0,-100.00,NE,56,9.0,24.0,89,0.00,,,0.01,175.000000,,2013-03-06 15:02:00,
2013-03-06 10:12:00,34.0,31.0,-100.00,NE,56,9.0,24.0,89,0.00,,,0.01,175.000000,,2013-03-06 15:12:00,
2013-03-06 10:22:00,34.0,31.0,-100.00,NE,56,9.0,24.0,89,0.00,,,0.01,175.000000,,2013-03-06 15:22:00,
2013-03-06 10:32:00,34.0,31.0,-100.00,NE,56,9.0,24.0,89,0.00,,,0.01,175.000000,,2013-03-06 15:32:00,
2013-03-06 10:52:00,33.0,31.0,-100.00,NE,51,7.0,20.0,93,0.01,,,0.02,151.000000,,2013-03-06 15:52:00,
2013-03-06 11:02:00,33.0,31.0,-100.00,NE,51,7.0,20.0,93,0.01,,,0.02,151.000000,,2013-03-06 16:02:00,
2013-03-06 11:12:00,33.0,31.0,-100.00,NE,51,7.0,20.0,93,0.01,,,0.02,151.000000,,2013-03-06 16:12:00,
2013-03-06 11:21:00,33.0,31.0,-100.00,NE,51,7.0,20.0,93,0.01,,,0.02,151.000000,,2013-03-06 16:21:00,
2013-03-06 11:32:00,33.0,31.0,-100.00,NE,51,7.0,20.0,93,0.01,,,0.02,151.000000,,2013-03-06 16:32:00,
2013-03-06 12:01:00,36.0,33.0,-100.00,NE,50,9.0,18.0,87,0.05,,,0.07,221.000000,,2013-03-06 17:01:00,
2013-03-06 12:11:00,36.0,33.0,-100.00,NE,50,9.0,18.0,87,0.05,,,0.07,221.000000,,2013-03-06 17:11:00,
2013-03-06 12:22:00,36.0,33.0,-100.00,NE,50,9.0,18.0,87,0.05,,,0.07,221.000000,,2013-03-06 17:22:00,
2013-03-06 12:32:00,36.0,33.0,-100.00,NE,50,9.0,18.0,87,0.05,,,0.07,221.000000,,2013-03-06 17:32:00,
2013-03-06 13:02:00,36.0,32.0,-100.00,NE,50,10.0,20.0,84,0.00,,,0.07,203.000000,,2013-03-06 18:02:00,
2013-03-06 13:29:00,36.0,32.0,-100.00,NE,50,10.0,20.0,84,0.00,,,0.07,203.000000,,2013-03-06 18:29:00,
2013-03-06 13:53:00,34.0,30.0,-100.00,NE,47,11.0,23.0,85,0.00,,,0.07,134.000000,,2013-03-06 18:53:00,
2013-03-06 14:02:00,34.0,30.0,-100.00,NE,47,11.0,23.0,85,0.00,,,0.07,134.000000,,2013-03-06 19:02:00,
2013-03-06 14:11:00,34.0,30.0,-100.00,NE,47,11.0,23.0,85,0.00,,,0.07,134.000000,,2013-03-06 19:11:00,
2013-03-06 14:22:00,34.0,30.0,-100.00,NE,47,11.0,23.0,85,0.00,,,0.07,134.000000,,2013-03-06 19:22:00,
2013-03-06 14:32:00,34.0,30.0,-100.00,NE,47,11.0,23.0,85,0.00,,,0.07,134.000000,,2013-03-06 19:32:00,
2013-03-06 15:02:00,33.0,31.0,-100.00,NE,55,9.0,32.0,91,0.01,,,0.08,85.000000,,2013-03-06 20:02:00,
2013-03-06 15:12:00,33.0,31.0,-100.00,NE,55,9.0,32.0,91,0.01,,,0.08,85.000000,,2013-03-06 20:12:00,
2013-03-06 15:22:00,33.0,31.0,-100.00,NE,55,9.0,32.0,91,0.01,,,0.08,85.000000,,2013-03-06 20:22:00,
2013-03-06 15:32:00,33.0,31.0,-100.00,NE,55,9.0,32.0,91,0.01,,,0.08,85.000000,,2013-03-06 20:32:00,
2013-03-06 16:02:00,33.0,30.0,-100.00,NE,55,9.0,22.0,89,0.02,,,0.10,97.000000,,2013-03-06 21:02:00,
2013-03-06 16:12:00,33.0,30.0,-100.00,NE,55,9.0,22.0,89,0.02,,,0.10,97.000000,,2013-03-06 21:12:00,
2013-03-06 16:22:00,33.0,30.0,-100.00,NE,55,9.0,22.0,89,0.02,,,0.10,97.000000,,2013-03-06 21:22:00,
2013-03-06 16:32:00,33.0,30.0,-100.00,NE,55,9.0,22.0,89,0.02,,,0.10,97.000000,,2013-03-06 21:32:00,
2013-03-06 17:02:00,34.0,29.0,-100.00,NE,49,9.0,21.0,81,0.01,,,0.11,52.000000,,2013-03-06 22:02:00,
2013-03-06 17:12:00,34.0,29.0,-100.00,NE,49,9.0,21.0,81,0.01,,,0.11,52.000000,,2013-03-06 22:12:00,
2013-03-06 17:22:00,34.0,29.0,-100.00,NE,49,9.0,21.0,81,0.01,,,0.11,52.000000,,2013-03-06 22:22:00,
2013-03-06 17:32:00,34.0,29.0,-100.00,NE,49,9.0,21.0,81,0.01,,,0.11,52.000000,,2013-03-06 22:32:00,
2013-03-06 17:52:00,34.0,28.0,-100.00,NE,50,10.0,23.0,78,0.00,,,0.11,7.000000,,2013-03-06 22:52:00,
2013-03-06 18:02:00,34.0,28.0,-100.00,NE,50,10.0,23.0,78,0.00,,,0.11,7.000000,,2013-03-06 23:02:00,
2013-03-06 18:11:00,34.0,28.0,-100.00,NE,50,10.0,23.0,78,0.00,,,0.11,7.000000,,2013-03-06 23:11:00,
2013-03-06 18:22:00,34.0,28.0,-100.00,NE,50,10.0,23.0,78,0.00,,,0.11,7.000000,,2013-03-06 23:22:00,
2013-03-06 18:32:00,34.0,28.0,-100.00,NE,50,10.0,23.0,78,0.00,,,0.11,7.000000,,2013-03-06 23:32:00,
2013-03-06 19:02:00,33.0,29.0,-100.00,NE,46,9.0,22.0,84,0.00,,,0.11,0.000000,,2013-03-07 00:02:00,
2013-03-06 19:11:00,33.0,29.0,-100.00,NE,46,9.0,22.0,84,0.00,,,0.11,0.000000,,2013-03-07 00:11:00,
2013-03-06 19:22:00,33.0,29.0,-100.00,NE,46,9.0,22.0,84,0.00,,,0.11,0.000000,,2013-03-07 00:22:00,
2013-03-06 19:32:00,33.0,29.0,-100.00,NE,46,9.0,22.0,84,0.00,,,0.11,0.000000,,2013-03-07 00:32:00,
2013-03-06 20:02:00,33.0,29.0,-100.00,NE,45,9.0,19.0,85,0.00,,,0.11,0.000000,,2013-03-07 01:02:00,
2013-03-06 20:12:00,33.0,29.0,-100.00,NE,45,9.0,19.0,85,0.00,,,0.11,0.000000,,2013-03-07 01:12:00,
2013-03-06 20:22:00,33.0,29.0,-100.00,NE,45,9.0,19.0,85,0.00,,,0.11,0.000000,,2013-03-07 01:22:00,
2013-03-06 20:32:00,33.0,29.0,-100.00,NE,45,9.0,19.0,85,0.00,,,0.11,0.000000,,2013-03-07 01:32:00,
2013-03-06 20:52:00,33.0,28.0,-100.00,NE,43,8.0,20.0,80,0.00,,,0.11,0.000000,,2013-03-07 01:52:00,
2013-03-06 21:01:00,33.0,28.0,-100.00,NE,43,8.0,20.0,80,0.00,,,0.11,0.000000,,2013-03-07 02:01:00,
2013-03-06 21:11:00,33.0,28.0,-100.00,NE,43,8.0,20.0,80,0.00,,,0.11,0.000000,,2013-03-07 02:11:00,
2013-03-06 21:21:00,33.0,28.0,-100.00,NE,43,8.0,20.0,80,0.00,,,0.11,0.000000,,2013-03-07 02:21:00,
2013-03-06 21:32:00,33.0,28.0,-100.00,NE,43,8.0,20.0,80,0.00,,,0.11,0.000000,,2013-03-07 02:32:00,
2013-03-06 22:02:00,35.0,27.0,-100.00,NE,53,9.0,20.0,71,0.00,,,0.11,0.000000,,2013-03-07 03:02:00,
2013-03-06 22:12:00,35.0,27.0,-100.00,NE,53,9.0,20.0,71,0.00,,,0.11,0.000000,,2013-03-07 03:12:00,
2013-03-06 22:22:00,35.0,27.0,-100.00,NE,53,9.0,20.0,71,0.00,,,0.11,0.000000,,2013-03-07 03:22:00,
2013-03-06 22:32:00,35.0,27.0,-100.00,NE,53,9.0,20.0,71,0.00,,,0.11,0.000000,,2013-03-07 03:32:00,
2013-03-06 23:02:00,35.0,25.0,-100.00,ENE,61,9.0,19.0,67,0.00,,,0.11,0.000000,,2013-03-07 04:02:00,
2013-03-06 23:12:00,35.0,25.0,-100.00,ENE,61,9.0,19.0,67,0.00,,,0.11,0.000000,,2013-03-07 04:12:00,
2013-03-06 23:22:00,35.0,25.0,-100.00,ENE,61,9.0,19.0,67,0.00,,,0.11,0.000000,,2013-03-07 04:22:00,
2013-03-06 23:32:00,35.0,25.0,-100.00,ENE,61,9.0,19.0,67,0.00,,,0.11,0.000000,,2013-03-07 04:32:00,
2013-03-06 23:52:00,35.0,25.0,-100.00,ENE,68,8.0,19.0,66,0.00,,,0.11,0.000000,,2013-03-07 04:52:00,